sensor_id;sensor_type;location;lat;lon;timestamp;P1;durP1;ratioP1;P2;durP2;ratioP2
68214;SDS011;55036;52.138;5.236;2023-05-20T00:02:08;10.10;;;3.55;;
68214;SDS011;55036;52.138;5.236;2023-05-20T00:04:34;9.02;;;4.20;;
68214;SDS011;55036;52.138;5.236;2023-05-20T00:07:01;10.38;;;3.70;;
68214;SDS011;55036;52.138;5.236;2023-05-20T00:09:29;7.75;;;3.70;;
68214;SDS011;55036;52.138;5.236;2023-05-20T00:11:55;8.63;;;3.47;;
68214;SDS011;55036;52.138;5.236;2023-05-20T00:47:55;9.07;;;3.72;;
68214;SDS011;55036;52.138;5.236;2023-05-20T00:50:24;9.90;;;3.80;;
68214;SDS011;55036;52.138;5.236;2023-05-20T00:52:51;8.98;;;4.30;;
68214;SDS011;55036;52.138;5.236;2023-05-20T00:55:20;8.82;;;3.58;;
68214;SDS011;55036;52.138;5.236;2023-05-20T00:57:48;12.13;;;4.47;;
68214;SDS011;55036;52.138;5.236;2023-05-20T01:00:15;10.98;;;4.40;;
68214;SDS011;55036;52.138;5.236;2023-05-20T01:02:42;10.18;;;3.95;;
68214;SDS011;55036;52.138;5.236;2023-05-20T01:05:08;10.95;;;3.75;;
68214;SDS011;55036;52.138;5.236;2023-05-20T01:07:35;9.10;;;4.28;;
68214;SDS011;55036;52.138;5.236;2023-05-20T01:10:02;8.35;;;3.72;;
68214;SDS011;55036;52.138;5.236;2023-05-20T01:12:41;9.13;;;3.90;;
68214;SDS011;55036;52.138;5.236;2023-05-20T01:15:14;11.57;;;4.00;;
68214;SDS011;55036;52.138;5.236;2023-05-20T01:17:45;12.18;;;4.63;;
68214;SDS011;55036;52.138;5.236;2023-05-20T01:20:16;11.20;;;4.40;;
68214;SDS011;55036;52.138;5.236;2023-05-20T01:22:53;14.30;;;4.47;;
68214;SDS011;55036;52.138;5.236;2023-05-20T01:25:21;12.57;;;4.60;;
68214;SDS011;55036;52.138;5.236;2023-05-20T01:27:50;10.35;;;4.03;;
68214;SDS011;55036;52.138;5.236;2023-05-20T01:30:18;8.77;;;4.30;;
68214;SDS011;55036;52.138;5.236;2023-05-20T01:32:53;7.65;;;4.30;;
68214;SDS011;55036;52.138;5.236;2023-05-20T01:35:23;16.92;;;5.07;;
68214;SDS011;55036;52.138;5.236;2023-05-20T01:37:51;6.95;;;4.40;;
68214;SDS011;55036;52.138;5.236;2023-05-20T01:40:18;7.55;;;4.50;;
68214;SDS011;55036;52.138;5.236;2023-05-20T01:42:46;8.10;;;4.68;;
68214;SDS011;55036;52.138;5.236;2023-05-20T01:45:18;10.73;;;4.90;;
68214;SDS011;55036;52.138;5.236;2023-05-20T01:47:45;9.68;;;4.25;;
68214;SDS011;55036;52.138;5.236;2023-05-20T01:50:12;12.27;;;4.53;;
68214;SDS011;55036;52.138;5.236;2023-05-20T01:52:39;9.30;;;4.40;;
68214;SDS011;55036;52.138;5.236;2023-05-20T01:55:05;12.10;;;4.78;;
68214;SDS011;55036;52.138;5.236;2023-05-20T01:57:32;8.50;;;4.45;;
68214;SDS011;55036;52.138;5.236;2023-05-20T01:59:59;9.43;;;4.55;;
68214;SDS011;55036;52.138;5.236;2023-05-20T02:02:26;14.90;;;4.80;;
68214;SDS011;55036;52.138;5.236;2023-05-20T02:04:53;8.35;;;4.38;;
68214;SDS011;55036;52.138;5.236;2023-05-20T02:07:20;10.77;;;4.82;;
68214;SDS011;55036;52.138;5.236;2023-05-20T02:09:46;14.48;;;5.45;;
68214;SDS011;55036;52.138;5.236;2023-05-20T02:12:13;7.30;;;5.05;;
68214;SDS011;55036;52.138;5.236;2023-05-20T02:14:43;9.82;;;4.63;;
68214;SDS011;55036;52.138;5.236;2023-05-20T02:17:11;11.63;;;4.55;;
68214;SDS011;55036;52.138;5.236;2023-05-20T02:19:41;12.95;;;5.15;;
68214;SDS011;55036;52.138;5.236;2023-05-20T02:22:08;8.32;;;4.45;;
68214;SDS011;55036;52.138;5.236;2023-05-20T02:24:35;10.45;;;4.80;;
68214;SDS011;55036;52.138;5.236;2023-05-20T02:27:02;9.75;;;4.43;;
68214;SDS011;55036;52.138;5.236;2023-05-20T02:29:29;8.77;;;5.07;;
68214;SDS011;55036;52.138;5.236;2023-05-20T02:31:56;9.65;;;4.78;;
68214;SDS011;55036;52.138;5.236;2023-05-20T02:34:23;8.95;;;4.30;;
68214;SDS011;55036;52.138;5.236;2023-05-20T02:36:51;10.98;;;4.68;;
68214;SDS011;55036;52.138;5.236;2023-05-20T02:39:18;10.48;;;4.55;;
68214;SDS011;55036;52.138;5.236;2023-05-20T02:41:45;8.63;;;4.63;;
68214;SDS011;55036;52.138;5.236;2023-05-20T02:44:11;9.82;;;4.35;;
68214;SDS011;55036;52.138;5.236;2023-05-20T02:46:38;10.68;;;5.25;;
68214;SDS011;55036;52.138;5.236;2023-05-20T02:49:05;11.43;;;4.60;;
68214;SDS011;55036;52.138;5.236;2023-05-20T02:51:32;11.98;;;4.93;;
68214;SDS011;55036;52.138;5.236;2023-05-20T02:53:58;9.60;;;4.65;;
68214;SDS011;55036;52.138;5.236;2023-05-20T02:56:25;9.20;;;4.85;;
68214;SDS011;55036;52.138;5.236;2023-05-20T02:58:53;7.70;;;5.00;;
68214;SDS011;55036;52.138;5.236;2023-05-20T03:01:20;7.38;;;4.43;;
68214;SDS011;55036;52.138;5.236;2023-05-20T03:03:48;9.55;;;5.00;;
68214;SDS011;55036;52.138;5.236;2023-05-20T03:06:15;9.43;;;5.10;;
68214;SDS011;55036;52.138;5.236;2023-05-20T03:08:41;11.68;;;4.82;;
68214;SDS011;55036;52.138;5.236;2023-05-20T03:11:08;12.35;;;5.78;;
68214;SDS011;55036;52.138;5.236;2023-05-20T03:13:35;10.85;;;4.97;;
68214;SDS011;55036;52.138;5.236;2023-05-20T03:16:02;10.80;;;4.90;;
68214;SDS011;55036;52.138;5.236;2023-05-20T03:18:29;7.70;;;4.35;;
68214;SDS011;55036;52.138;5.236;2023-05-20T03:20:55;9.25;;;4.45;;
68214;SDS011;55036;52.138;5.236;2023-05-20T03:23:22;8.25;;;4.80;;
68214;SDS011;55036;52.138;5.236;2023-05-20T03:25:49;9.50;;;4.55;;
68214;SDS011;55036;52.138;5.236;2023-05-20T03:28:16;11.27;;;5.22;;
68214;SDS011;55036;52.138;5.236;2023-05-20T03:30:42;8.32;;;4.68;;
68214;SDS011;55036;52.138;5.236;2023-05-20T03:33:09;9.10;;;4.88;;
68214;SDS011;55036;52.138;5.236;2023-05-20T03:35:36;8.50;;;4.43;;
68214;SDS011;55036;52.138;5.236;2023-05-20T03:38:03;11.32;;;4.40;;
68214;SDS011;55036;52.138;5.236;2023-05-20T03:40:29;9.60;;;4.55;;
68214;SDS011;55036;52.138;5.236;2023-05-20T03:42:56;11.07;;;4.68;;
68214;SDS011;55036;52.138;5.236;2023-05-20T03:45:23;8.07;;;4.65;;
68214;SDS011;55036;52.138;5.236;2023-05-20T03:47:50;6.28;;;4.65;;
68214;SDS011;55036;52.138;5.236;2023-05-20T03:50:17;7.00;;;4.38;;
68214;SDS011;55036;52.138;5.236;2023-05-20T03:52:44;10.95;;;4.82;;
68214;SDS011;55036;52.138;5.236;2023-05-20T03:55:10;11.32;;;4.90;;
68214;SDS011;55036;52.138;5.236;2023-05-20T03:57:37;10.27;;;4.50;;
68214;SDS011;55036;52.138;5.236;2023-05-20T04:00:05;11.30;;;4.65;;
68214;SDS011;55036;52.138;5.236;2023-05-20T04:02:36;6.43;;;4.45;;
68214;SDS011;55036;52.138;5.236;2023-05-20T04:05:03;11.98;;;4.80;;
68214;SDS011;55036;52.138;5.236;2023-05-20T04:07:31;8.80;;;4.70;;
68214;SDS011;55036;52.138;5.236;2023-05-20T04:09:57;11.65;;;5.13;;
68214;SDS011;55036;52.138;5.236;2023-05-20T04:12:24;7.63;;;4.60;;
68214;SDS011;55036;52.138;5.236;2023-05-20T04:14:56;8.88;;;4.57;;
68214;SDS011;55036;52.138;5.236;2023-05-20T04:17:27;9.82;;;4.43;;
68214;SDS011;55036;52.138;5.236;2023-05-20T04:19:57;11.98;;;5.30;;
68214;SDS011;55036;52.138;5.236;2023-05-20T04:22:25;8.10;;;4.35;;
68214;SDS011;55036;52.138;5.236;2023-05-20T04:24:52;10.82;;;5.10;;
68214;SDS011;55036;52.138;5.236;2023-05-20T04:27:22;10.75;;;4.90;;
68214;SDS011;55036;52.138;5.236;2023-05-20T04:29:48;11.27;;;4.40;;
68214;SDS011;55036;52.138;5.236;2023-05-20T04:32:16;10.65;;;5.15;;
68214;SDS011;55036;52.138;5.236;2023-05-20T04:34:46;13.55;;;5.40;;
68214;SDS011;55036;52.138;5.236;2023-05-20T04:37:14;9.00;;;5.00;;
68214;SDS011;55036;52.138;5.236;2023-05-20T04:39:41;6.25;;;4.72;;
68214;SDS011;55036;52.138;5.236;2023-05-20T04:42:08;11.20;;;5.13;;
68214;SDS011;55036;52.138;5.236;2023-05-20T04:44:35;8.43;;;4.82;;
68214;SDS011;55036;52.138;5.236;2023-05-20T04:47:03;10.02;;;5.00;;
68214;SDS011;55036;52.138;5.236;2023-05-20T04:49:29;11.70;;;5.30;;
68214;SDS011;55036;52.138;5.236;2023-05-20T04:51:56;9.52;;;4.60;;
68214;SDS011;55036;52.138;5.236;2023-05-20T04:54:23;10.73;;;4.93;;
68214;SDS011;55036;52.138;5.236;2023-05-20T04:56:50;11.07;;;4.82;;
68214;SDS011;55036;52.138;5.236;2023-05-20T04:59:17;8.68;;;4.95;;
68214;SDS011;55036;52.138;5.236;2023-05-20T05:01:44;7.05;;;4.40;;
68214;SDS011;55036;52.138;5.236;2023-05-20T05:04:11;12.10;;;4.20;;
68214;SDS011;55036;52.138;5.236;2023-05-20T05:06:37;11.65;;;4.65;;
68214;SDS011;55036;52.138;5.236;2023-05-20T05:09:04;7.68;;;4.45;;
68214;SDS011;55036;52.138;5.236;2023-05-20T05:11:31;10.02;;;4.75;;
68214;SDS011;55036;52.138;5.236;2023-05-20T05:13:57;8.45;;;4.50;;
68214;SDS011;55036;52.138;5.236;2023-05-20T05:16:24;8.95;;;5.30;;
68214;SDS011;55036;52.138;5.236;2023-05-20T05:18:51;9.02;;;4.53;;
68214;SDS011;55036;52.138;5.236;2023-05-20T05:21:18;7.07;;;4.38;;
68214;SDS011;55036;52.138;5.236;2023-05-20T05:23:45;10.55;;;3.72;;
68214;SDS011;55036;52.138;5.236;2023-05-20T05:26:12;9.90;;;4.47;;
68214;SDS011;55036;52.138;5.236;2023-05-20T05:28:40;8.02;;;4.22;;
68214;SDS011;55036;52.138;5.236;2023-05-20T05:31:07;8.10;;;4.32;;
68214;SDS011;55036;52.138;5.236;2023-05-20T05:33:34;9.63;;;4.40;;
68214;SDS011;55036;52.138;5.236;2023-05-20T05:36:01;9.88;;;4.35;;
68214;SDS011;55036;52.138;5.236;2023-05-20T05:38:29;7.00;;;3.55;;
68214;SDS011;55036;52.138;5.236;2023-05-20T05:40:56;7.88;;;4.25;;
68214;SDS011;55036;52.138;5.236;2023-05-20T05:43:23;8.02;;;4.28;;
68214;SDS011;55036;52.138;5.236;2023-05-20T05:45:50;11.77;;;4.43;;
68214;SDS011;55036;52.138;5.236;2023-05-20T05:48:16;8.80;;;4.43;;
68214;SDS011;55036;52.138;5.236;2023-05-20T05:50:44;9.32;;;3.92;;
68214;SDS011;55036;52.138;5.236;2023-05-20T05:53:11;8.27;;;4.30;;
68214;SDS011;55036;52.138;5.236;2023-05-20T05:55:38;8.23;;;3.90;;
68214;SDS011;55036;52.138;5.236;2023-05-20T05:58:05;6.50;;;4.13;;
68214;SDS011;55036;52.138;5.236;2023-05-20T06:00:31;7.18;;;3.75;;
68214;SDS011;55036;52.138;5.236;2023-05-20T06:02:58;5.47;;;3.67;;
68214;SDS011;55036;52.138;5.236;2023-05-20T06:05:26;8.68;;;4.03;;
68214;SDS011;55036;52.138;5.236;2023-05-20T06:07:54;7.45;;;3.92;;
68214;SDS011;55036;52.138;5.236;2023-05-20T06:10:21;8.82;;;4.55;;
68214;SDS011;55036;52.138;5.236;2023-05-20T06:12:48;7.68;;;3.60;;
68214;SDS011;55036;52.138;5.236;2023-05-20T06:15:15;7.53;;;3.67;;
68214;SDS011;55036;52.138;5.236;2023-05-20T06:17:42;9.40;;;4.13;;
68214;SDS011;55036;52.138;5.236;2023-05-20T06:20:09;6.05;;;3.85;;
68214;SDS011;55036;52.138;5.236;2023-05-20T06:22:36;5.90;;;3.85;;
68214;SDS011;55036;52.138;5.236;2023-05-20T06:25:03;8.77;;;3.78;;
68214;SDS011;55036;52.138;5.236;2023-05-20T06:27:31;7.20;;;3.85;;
68214;SDS011;55036;52.138;5.236;2023-05-20T06:29:58;9.13;;;4.07;;
68214;SDS011;55036;52.138;5.236;2023-05-20T06:32:25;7.00;;;3.55;;
68214;SDS011;55036;52.138;5.236;2023-05-20T06:34:52;6.20;;;3.72;;
68214;SDS011;55036;52.138;5.236;2023-05-20T06:37:19;6.70;;;3.60;;
68214;SDS011;55036;52.138;5.236;2023-05-20T06:39:49;7.63;;;3.58;;
68214;SDS011;55036;52.138;5.236;2023-05-20T06:42:19;8.55;;;4.18;;
68214;SDS011;55036;52.138;5.236;2023-05-20T06:44:46;9.15;;;3.85;;
68214;SDS011;55036;52.138;5.236;2023-05-20T06:47:13;7.18;;;3.97;;
68214;SDS011;55036;52.138;5.236;2023-05-20T06:49:42;6.90;;;4.10;;
68214;SDS011;55036;52.138;5.236;2023-05-20T06:52:12;9.27;;;4.20;;
68214;SDS011;55036;52.138;5.236;2023-05-20T06:54:39;7.82;;;3.70;;
68214;SDS011;55036;52.138;5.236;2023-05-20T06:57:07;6.15;;;3.40;;
68214;SDS011;55036;52.138;5.236;2023-05-20T06:59:34;7.82;;;3.22;;
68214;SDS011;55036;52.138;5.236;2023-05-20T07:02:02;7.63;;;3.88;;
68214;SDS011;55036;52.138;5.236;2023-05-20T07:04:29;8.02;;;3.88;;
68214;SDS011;55036;52.138;5.236;2023-05-20T07:06:56;6.72;;;3.63;;
68214;SDS011;55036;52.138;5.236;2023-05-20T07:09:22;9.40;;;4.00;;
68214;SDS011;55036;52.138;5.236;2023-05-20T07:11:49;7.30;;;3.63;;
68214;SDS011;55036;52.138;5.236;2023-05-20T07:14:16;9.75;;;4.15;;
68214;SDS011;55036;52.138;5.236;2023-05-20T07:16:43;8.10;;;3.50;;
68214;SDS011;55036;52.138;5.236;2023-05-20T07:19:10;8.00;;;4.53;;
68214;SDS011;55036;52.138;5.236;2023-05-20T07:21:37;6.50;;;3.67;;
68214;SDS011;55036;52.138;5.236;2023-05-20T07:24:03;5.40;;;3.35;;
68214;SDS011;55036;52.138;5.236;2023-05-20T07:26:30;5.40;;;3.40;;
68214;SDS011;55036;52.138;5.236;2023-05-20T07:29:02;9.20;;;3.78;;
68214;SDS011;55036;52.138;5.236;2023-05-20T07:31:29;4.85;;;3.28;;
68214;SDS011;55036;52.138;5.236;2023-05-20T07:33:56;5.22;;;3.10;;
68214;SDS011;55036;52.138;5.236;2023-05-20T07:36:25;7.57;;;2.88;;
68214;SDS011;55036;52.138;5.236;2023-05-20T07:38:52;6.63;;;3.33;;
68214;SDS011;55036;52.138;5.236;2023-05-20T07:41:28;5.68;;;3.22;;
68214;SDS011;55036;52.138;5.236;2023-05-20T07:43:55;7.70;;;3.38;;
68214;SDS011;55036;52.138;5.236;2023-05-20T07:46:21;6.25;;;3.20;;
68214;SDS011;55036;52.138;5.236;2023-05-20T07:48:48;5.20;;;3.13;;
68214;SDS011;55036;52.138;5.236;2023-05-20T07:51:15;4.22;;;2.45;;
68214;SDS011;55036;52.138;5.236;2023-05-20T07:53:42;6.28;;;2.60;;
68214;SDS011;55036;52.138;5.236;2023-05-20T07:56:08;5.45;;;2.83;;
68214;SDS011;55036;52.138;5.236;2023-05-20T07:58:35;4.75;;;3.58;;
68214;SDS011;55036;52.138;5.236;2023-05-20T08:01:02;3.20;;;2.83;;
68214;SDS011;55036;52.138;5.236;2023-05-20T08:03:29;5.63;;;3.42;;
68214;SDS011;55036;52.138;5.236;2023-05-20T08:05:55;7.30;;;3.15;;
68214;SDS011;55036;52.138;5.236;2023-05-20T08:08:22;4.35;;;2.90;;
68214;SDS011;55036;52.138;5.236;2023-05-20T08:10:49;6.07;;;2.63;;
68214;SDS011;55036;52.138;5.236;2023-05-20T08:13:17;6.15;;;2.55;;
68214;SDS011;55036;52.138;5.236;2023-05-20T08:15:44;4.80;;;2.97;;
68214;SDS011;55036;52.138;5.236;2023-05-20T08:18:11;7.97;;;2.80;;
68214;SDS011;55036;52.138;5.236;2023-05-20T08:20:38;4.72;;;2.85;;
68214;SDS011;55036;52.138;5.236;2023-05-20T08:23:04;5.35;;;3.00;;
68214;SDS011;55036;52.138;5.236;2023-05-20T08:25:31;6.50;;;2.42;;
68214;SDS011;55036;52.138;5.236;2023-05-20T08:28:00;5.30;;;2.53;;
68214;SDS011;55036;52.138;5.236;2023-05-20T08:30:29;5.90;;;2.80;;
68214;SDS011;55036;52.138;5.236;2023-05-20T08:32:55;3.75;;;2.53;;
68214;SDS011;55036;52.138;5.236;2023-05-20T08:35:23;8.02;;;2.45;;
68214;SDS011;55036;52.138;5.236;2023-05-20T08:37:50;4.50;;;2.38;;
68214;SDS011;55036;52.138;5.236;2023-05-20T08:40:19;5.57;;;2.40;;
68214;SDS011;55036;52.138;5.236;2023-05-20T08:42:47;4.70;;;2.08;;
68214;SDS011;55036;52.138;5.236;2023-05-20T08:45:16;4.32;;;2.40;;
68214;SDS011;55036;52.138;5.236;2023-05-20T08:47:43;7.18;;;2.92;;
68214;SDS011;55036;52.138;5.236;2023-05-20T08:50:11;2.95;;;1.95;;
68214;SDS011;55036;52.138;5.236;2023-05-20T08:52:41;4.65;;;2.20;;
68214;SDS011;55036;52.138;5.236;2023-05-20T08:55:13;7.00;;;2.60;;
68214;SDS011;55036;52.138;5.236;2023-05-20T08:57:41;5.13;;;2.22;;
68214;SDS011;55036;52.138;5.236;2023-05-20T09:00:12;3.78;;;1.80;;
68214;SDS011;55036;52.138;5.236;2023-05-20T09:02:43;4.72;;;2.10;;
68214;SDS011;55036;52.138;5.236;2023-05-20T09:05:10;3.50;;;1.80;;
68214;SDS011;55036;52.138;5.236;2023-05-20T09:07:37;2.58;;;1.70;;
68214;SDS011;55036;52.138;5.236;2023-05-20T09:10:04;4.05;;;2.00;;
68214;SDS011;55036;52.138;5.236;2023-05-20T09:12:31;5.20;;;2.22;;
68214;SDS011;55036;52.138;5.236;2023-05-20T09:14:58;2.38;;;1.65;;
68214;SDS011;55036;52.138;5.236;2023-05-20T09:17:24;2.30;;;1.60;;
68214;SDS011;55036;52.138;5.236;2023-05-20T09:19:51;3.97;;;1.73;;
68214;SDS011;55036;52.138;5.236;2023-05-20T09:22:22;6.53;;;1.88;;
68214;SDS011;55036;52.138;5.236;2023-05-20T09:24:50;2.38;;;1.70;;
68214;SDS011;55036;52.138;5.236;2023-05-20T09:27:17;6.45;;;1.92;;
68214;SDS011;55036;52.138;5.236;2023-05-20T09:29:48;4.57;;;1.70;;
68214;SDS011;55036;52.138;5.236;2023-05-20T09:32:15;4.05;;;1.70;;
68214;SDS011;55036;52.138;5.236;2023-05-20T09:34:42;3.70;;;1.75;;
68214;SDS011;55036;52.138;5.236;2023-05-20T09:37:10;4.32;;;1.95;;
68214;SDS011;55036;52.138;5.236;2023-05-20T09:39:47;3.78;;;1.80;;
68214;SDS011;55036;52.138;5.236;2023-05-20T09:42:30;3.70;;;1.90;;
68214;SDS011;55036;52.138;5.236;2023-05-20T09:45:03;3.08;;;1.70;;
68214;SDS011;55036;52.138;5.236;2023-05-20T09:47:32;2.10;;;1.70;;
68214;SDS011;55036;52.138;5.236;2023-05-20T09:49:59;3.33;;;1.90;;
68214;SDS011;55036;52.138;5.236;2023-05-20T09:52:28;4.25;;;1.30;;
68214;SDS011;55036;52.138;5.236;2023-05-20T09:54:55;3.22;;;1.77;;
68214;SDS011;55036;52.138;5.236;2023-05-20T09:57:24;6.60;;;1.55;;
68214;SDS011;55036;52.138;5.236;2023-05-20T09:59:50;5.85;;;2.20;;
68214;SDS011;55036;52.138;5.236;2023-05-20T10:02:18;6.38;;;1.83;;
68214;SDS011;55036;52.138;5.236;2023-05-20T10:04:46;4.22;;;1.50;;
68214;SDS011;55036;52.138;5.236;2023-05-20T10:13:01;5.90;;;2.03;;
68214;SDS011;55036;52.138;5.236;2023-05-20T10:21:16;2.28;;;1.40;;
68214;SDS011;55036;52.138;5.236;2023-05-20T10:23:49;3.13;;;1.73;;
68214;SDS011;55036;52.138;5.236;2023-05-20T10:26:17;4.93;;;1.30;;
68214;SDS011;55036;52.138;5.236;2023-05-20T10:28:44;4.60;;;1.70;;
68214;SDS011;55036;52.138;5.236;2023-05-20T10:31:15;4.20;;;1.20;;
68214;SDS011;55036;52.138;5.236;2023-05-20T10:33:43;2.67;;;1.38;;
68214;SDS011;55036;52.138;5.236;2023-05-20T10:39:13;2.25;;;1.40;;
68214;SDS011;55036;52.138;5.236;2023-05-20T10:41:42;1.90;;;1.58;;
68214;SDS011;55036;52.138;5.236;2023-05-20T10:44:09;5.35;;;1.88;;
68214;SDS011;55036;52.138;5.236;2023-05-20T10:46:36;6.57;;;1.80;;
68214;SDS011;55036;52.138;5.236;2023-05-20T10:49:19;3.20;;;1.83;;
68214;SDS011;55036;52.138;5.236;2023-05-20T10:51:50;6.20;;;1.73;;
68214;SDS011;55036;52.138;5.236;2023-05-20T10:54:17;4.93;;;1.63;;
68214;SDS011;55036;52.138;5.236;2023-05-20T10:56:50;1.52;;;1.40;;
68214;SDS011;55036;52.138;5.236;2023-05-20T10:59:19;3.80;;;1.60;;
68214;SDS011;55036;52.138;5.236;2023-05-20T11:01:49;4.35;;;2.03;;
68214;SDS011;55036;52.138;5.236;2023-05-20T11:04:16;3.17;;;1.63;;
68214;SDS011;55036;52.138;5.236;2023-05-20T11:06:50;7.75;;;1.92;;
68214;SDS011;55036;52.138;5.236;2023-05-20T11:09:19;4.10;;;1.70;;
68214;SDS011;55036;52.138;5.236;2023-05-20T11:11:46;2.90;;;1.40;;
68214;SDS011;55036;52.138;5.236;2023-05-20T11:14:12;6.70;;;1.73;;
68214;SDS011;55036;52.138;5.236;2023-05-20T11:16:40;3.72;;;1.65;;
68214;SDS011;55036;52.138;5.236;2023-05-20T11:19:07;3.10;;;1.60;;
68214;SDS011;55036;52.138;5.236;2023-05-20T11:21:43;5.78;;;1.50;;
68214;SDS011;55036;52.138;5.236;2023-05-20T11:24:11;3.33;;;1.48;;
68214;SDS011;55036;52.138;5.236;2023-05-20T11:26:38;4.45;;;1.63;;
68214;SDS011;55036;52.138;5.236;2023-05-20T11:29:05;8.48;;;1.65;;
68214;SDS011;55036;52.138;5.236;2023-05-20T11:31:32;3.05;;;1.70;;
68214;SDS011;55036;52.138;5.236;2023-05-20T11:33:59;4.65;;;1.48;;
68214;SDS011;55036;52.138;5.236;2023-05-20T11:36:27;3.10;;;1.48;;
68214;SDS011;55036;52.138;5.236;2023-05-20T11:38:58;2.90;;;1.67;;
68214;SDS011;55036;52.138;5.236;2023-05-20T11:41:25;8.27;;;1.67;;
68214;SDS011;55036;52.138;5.236;2023-05-20T11:43:59;2.20;;;1.30;;
68214;SDS011;55036;52.138;5.236;2023-05-20T11:46:26;3.78;;;1.52;;
68214;SDS011;55036;52.138;5.236;2023-05-20T11:48:53;5.40;;;2.03;;
68214;SDS011;55036;52.138;5.236;2023-05-20T11:51:29;2.83;;;1.83;;
68214;SDS011;55036;52.138;5.236;2023-05-20T11:54:02;3.25;;;2.05;;
68214;SDS011;55036;52.138;5.236;2023-05-20T11:56:34;5.82;;;1.55;;
68214;SDS011;55036;52.138;5.236;2023-05-20T11:59:03;4.00;;;1.63;;
68214;SDS011;55036;52.138;5.236;2023-05-20T12:01:34;3.15;;;1.67;;
68214;SDS011;55036;52.138;5.236;2023-05-20T12:04:06;3.75;;;1.70;;
68214;SDS011;55036;52.138;5.236;2023-05-20T12:06:34;4.45;;;1.65;;
68214;SDS011;55036;52.138;5.236;2023-05-20T12:09:03;8.40;;;1.75;;
68214;SDS011;55036;52.138;5.236;2023-05-20T12:11:33;1.60;;;1.50;;
68214;SDS011;55036;52.138;5.236;2023-05-20T12:14:01;2.63;;;1.42;;
68214;SDS011;55036;52.138;5.236;2023-05-20T12:16:31;4.70;;;1.83;;
68214;SDS011;55036;52.138;5.236;2023-05-20T12:18:59;5.53;;;1.83;;
68214;SDS011;55036;52.138;5.236;2023-05-20T12:21:29;4.50;;;1.67;;
68214;SDS011;55036;52.138;5.236;2023-05-20T12:23:59;2.58;;;1.70;;
68214;SDS011;55036;52.138;5.236;2023-05-20T12:26:27;3.47;;;1.42;;
68214;SDS011;55036;52.138;5.236;2023-05-20T12:28:54;5.05;;;1.95;;
68214;SDS011;55036;52.138;5.236;2023-05-20T12:31:21;5.80;;;1.60;;
68214;SDS011;55036;52.138;5.236;2023-05-20T12:33:48;5.10;;;1.60;;
68214;SDS011;55036;52.138;5.236;2023-05-20T12:36:15;4.63;;;1.60;;
68214;SDS011;55036;52.138;5.236;2023-05-20T12:38:42;3.75;;;1.60;;
68214;SDS011;55036;52.138;5.236;2023-05-20T12:41:09;2.65;;;1.40;;
68214;SDS011;55036;52.138;5.236;2023-05-20T12:43:36;3.55;;;1.67;;
68214;SDS011;55036;52.138;5.236;2023-05-20T12:46:03;2.97;;;1.50;;
68214;SDS011;55036;52.138;5.236;2023-05-20T12:48:30;5.88;;;1.70;;
68214;SDS011;55036;52.138;5.236;2023-05-20T12:50:57;3.30;;;1.48;;
68214;SDS011;55036;52.138;5.236;2023-05-20T12:53:23;2.70;;;1.25;;
68214;SDS011;55036;52.138;5.236;2023-05-20T12:55:50;5.78;;;1.70;;
68214;SDS011;55036;52.138;5.236;2023-05-20T12:58:17;2.63;;;1.45;;
68214;SDS011;55036;52.138;5.236;2023-05-20T13:00:44;3.35;;;1.50;;
68214;SDS011;55036;52.138;5.236;2023-05-20T13:03:11;3.58;;;1.23;;
68214;SDS011;55036;52.138;5.236;2023-05-20T13:05:37;4.40;;;1.63;;
68214;SDS011;55036;52.138;5.236;2023-05-20T13:08:04;5.65;;;1.73;;
68214;SDS011;55036;52.138;5.236;2023-05-20T13:10:31;2.70;;;1.63;;
68214;SDS011;55036;52.138;5.236;2023-05-20T13:12:58;3.65;;;1.70;;
68214;SDS011;55036;52.138;5.236;2023-05-20T13:15:25;3.65;;;1.45;;
68214;SDS011;55036;52.138;5.236;2023-05-20T13:17:52;6.35;;;1.70;;
68214;SDS011;55036;52.138;5.236;2023-05-20T13:20:19;5.47;;;1.65;;
68214;SDS011;55036;52.138;5.236;2023-05-20T13:22:46;3.92;;;1.67;;
68214;SDS011;55036;52.138;5.236;2023-05-20T13:25:15;2.78;;;1.50;;
68214;SDS011;55036;52.138;5.236;2023-05-20T13:27:42;2.05;;;1.35;;
68214;SDS011;55036;52.138;5.236;2023-05-20T13:30:09;2.03;;;1.60;;
68214;SDS011;55036;52.138;5.236;2023-05-20T13:32:36;2.78;;;1.52;;
68214;SDS011;55036;52.138;5.236;2023-05-20T13:35:03;1.95;;;1.40;;
68214;SDS011;55036;52.138;5.236;2023-05-20T13:37:30;5.32;;;2.17;;
68214;SDS011;55036;52.138;5.236;2023-05-20T13:39:56;3.78;;;1.60;;
68214;SDS011;55036;52.138;5.236;2023-05-20T13:42:23;3.60;;;1.77;;
68214;SDS011;55036;52.138;5.236;2023-05-20T13:44:50;3.33;;;1.58;;
68214;SDS011;55036;52.138;5.236;2023-05-20T13:47:16;2.70;;;1.70;;
68214;SDS011;55036;52.138;5.236;2023-05-20T13:49:43;3.65;;;1.70;;
68214;SDS011;55036;52.138;5.236;2023-05-20T13:52:10;1.73;;;1.30;;
68214;SDS011;55036;52.138;5.236;2023-05-20T13:54:37;4.68;;;1.65;;
68214;SDS011;55036;52.138;5.236;2023-05-20T13:57:03;2.22;;;1.65;;
68214;SDS011;55036;52.138;5.236;2023-05-20T13:59:33;5.68;;;1.58;;
68214;SDS011;55036;52.138;5.236;2023-05-20T14:02:00;5.20;;;1.90;;
68214;SDS011;55036;52.138;5.236;2023-05-20T14:04:27;2.97;;;1.40;;
68214;SDS011;55036;52.138;5.236;2023-05-20T14:06:56;5.93;;;2.00;;
68214;SDS011;55036;52.138;5.236;2023-05-20T14:09:24;2.05;;;1.20;;
68214;SDS011;55036;52.138;5.236;2023-05-20T14:11:51;4.63;;;1.58;;
68214;SDS011;55036;52.138;5.236;2023-05-20T14:14:18;6.68;;;2.08;;
68214;SDS011;55036;52.138;5.236;2023-05-20T14:16:44;4.85;;;1.85;;
68214;SDS011;55036;52.138;5.236;2023-05-20T14:19:11;3.95;;;1.92;;
68214;SDS011;55036;52.138;5.236;2023-05-20T14:21:38;2.00;;;1.35;;
68214;SDS011;55036;52.138;5.236;2023-05-20T14:24:05;2.38;;;1.65;;
68214;SDS011;55036;52.138;5.236;2023-05-20T14:26:32;2.60;;;1.55;;
68214;SDS011;55036;52.138;5.236;2023-05-20T14:28:59;3.72;;;1.40;;
68214;SDS011;55036;52.138;5.236;2023-05-20T14:31:26;4.28;;;1.58;;
68214;SDS011;55036;52.138;5.236;2023-05-20T14:33:53;3.25;;;1.52;;
68214;SDS011;55036;52.138;5.236;2023-05-20T14:36:20;2.45;;;1.45;;
68214;SDS011;55036;52.138;5.236;2023-05-20T14:38:46;6.32;;;1.83;;
68214;SDS011;55036;52.138;5.236;2023-05-20T14:41:14;6.50;;;1.50;;
68214;SDS011;55036;52.138;5.236;2023-05-20T14:43:41;5.10;;;1.40;;
68214;SDS011;55036;52.138;5.236;2023-05-20T14:46:08;2.30;;;1.45;;
68214;SDS011;55036;52.138;5.236;2023-05-20T14:48:35;2.20;;;1.40;;
68214;SDS011;55036;52.138;5.236;2023-05-20T14:51:02;4.47;;;1.30;;
68214;SDS011;55036;52.138;5.236;2023-05-20T14:53:29;4.30;;;2.00;;
68214;SDS011;55036;52.138;5.236;2023-05-20T14:55:56;2.78;;;1.55;;
68214;SDS011;55036;52.138;5.236;2023-05-20T14:58:22;4.38;;;1.40;;
68214;SDS011;55036;52.138;5.236;2023-05-20T15:00:49;4.22;;;1.70;;
68214;SDS011;55036;52.138;5.236;2023-05-20T15:03:17;4.82;;;1.80;;
68214;SDS011;55036;52.138;5.236;2023-05-20T15:05:44;5.07;;;1.30;;
68214;SDS011;55036;52.138;5.236;2023-05-20T15:08:11;3.10;;;1.42;;
68214;SDS011;55036;52.138;5.236;2023-05-20T15:10:38;3.45;;;1.40;;
68214;SDS011;55036;52.138;5.236;2023-05-20T15:13:04;5.97;;;1.38;;
68214;SDS011;55036;52.138;5.236;2023-05-20T15:15:32;3.40;;;1.48;;
68214;SDS011;55036;52.138;5.236;2023-05-20T15:17:59;4.78;;;1.58;;
68214;SDS011;55036;52.138;5.236;2023-05-20T15:20:26;4.13;;;1.60;;
68214;SDS011;55036;52.138;5.236;2023-05-20T15:22:53;3.83;;;1.33;;
68214;SDS011;55036;52.138;5.236;2023-05-20T15:25:19;4.50;;;1.45;;
68214;SDS011;55036;52.138;5.236;2023-05-20T15:27:46;4.18;;;1.17;;
68214;SDS011;55036;52.138;5.236;2023-05-20T15:30:13;3.22;;;1.20;;
68214;SDS011;55036;52.138;5.236;2023-05-20T15:32:40;1.85;;;1.20;;
68214;SDS011;55036;52.138;5.236;2023-05-20T15:35:08;4.03;;;1.60;;
68214;SDS011;55036;52.138;5.236;2023-05-20T15:37:35;2.22;;;1.17;;